Time;durP1;ratioP1;P1;durP2;ratioP2;P2;SDS_P1;SDS_P2;PMS_P1;PMS_P2;Temp;Humidity;BMP_temperature;BMP_pressure;BME280_temperature;BME280_humidity;BME280_pressure;Samples;Min_cycle;Max_cycle;Signal;HPM_P1;HPM_P2
2021/05/09 00:01:18;;;;;;;4.70;2.33;;;;;;;14.78;100.00;99952.88;1792787;80;26315;-79
2021/05/09 00:03:48;;;;;;;5.43;2.80;;;;;;;14.76;100.00;99956.59;1793227;79;26261;-80
2021/05/09 00:06:18;;;;;;;5.97;2.60;;;;;;;14.75;100.00;99949.36;1793032;80;26232;-81
2021/05/09 00:08:48;;;;;;;3.93;2.57;;;;;;;14.77;100.00;99945.06;1792990;80;26373;-79
2021/05/09 00:11:19;;;;;;;6.80;2.70;;;;;;;14.82;100.00;99944.05;1793088;80;26220;-79
2021/05/09 00:13:49;;;;;;;3.97;2.53;;;;;;;14.93;100.00;99946.13;1792976;79;26311;-79
2021/05/09 00:16:19;;;;;;;4.60;2.20;;;;;;;14.96;100.00;99936.27;1793201;80;26694;-78
2021/05/09 00:18:48;;;;;;;5.50;2.17;;;;;;;14.81;100.00;99930.65;1793125;80;26308;-78
2021/05/09 00:21:18;;;;;;;3.87;2.10;;;;;;;14.93;100.00;99927.16;1792549;80;26718;-78
2021/05/09 00:23:48;;;;;;;3.63;2.37;;;;;;;14.86;100.00;99922.66;1793494;80;26331;-80
2021/05/09 00:26:18;;;;;;;5.07;2.40;;;;;;;14.81;100.00;99917.25;1793347;80;26317;-80
2021/05/09 00:28:48;;;;;;;5.40;2.70;;;;;;;14.74;100.00;99913.59;1792419;80;26241;-80
2021/05/09 00:31:18;;;;;;;3.20;2.13;;;;;;;14.78;100.00;99911.77;1792301;80;26299;-79
2021/05/09 00:33:47;;;;;;;3.87;2.27;;;;;;;14.77;100.00;99903.13;1792179;80;26757;-79
2021/05/09 00:36:17;;;;;;;4.30;2.20;;;;;;;14.86;100.00;99894.70;1792209;80;26235;-79
2021/05/09 00:38:47;;;;;;;2.93;2.03;;;;;;;14.82;100.00;99898.75;1792329;79;26670;-79
2021/05/09 00:41:17;;;;;;;4.33;2.50;;;;;;;14.70;100.00;99888.87;1791976;80;26221;-78
2021/05/09 00:43:47;;;;;;;5.50;2.00;;;;;;;14.77;100.00;99890.55;1792747;80;26216;-80
2021/05/09 00:46:17;;;;;;;5.57;1.80;;;;;;;14.66;100.00;99890.69;1792691;79;26327;-80
2021/05/09 00:48:47;;;;;;;4.97;2.57;;;;;;;14.70;100.00;99884.67;1792530;80;26287;-81
2021/05/09 00:51:18;;;;;;;2.67;1.90;;;;;;;14.72;100.00;99885.14;1792126;80;26294;-81
2021/05/09 00:53:49;;;;;;;4.63;2.23;;;;;;;14.66;100.00;99886.50;1792053;79;26659;-80
2021/05/09 00:56:21;;;;;;;2.10;1.80;;;;;;;14.55;100.00;99873.47;1792522;80;26220;-80
2021/05/09 00:58:54;;;;;;;4.50;1.90;;;;;;;14.65;100.00;99876.47;1792834;79;26279;-81
2021/05/09 01:01:24;;;;;;;2.57;2.20;;;;;;;14.69;100.00;99876.61;1792613;80;26676;-79
2021/05/09 01:03:55;;;;;;;3.30;1.90;;;;;;;14.72;100.00;99869.77;1792263;79;26691;-79
2021/05/09 01:06:25;;;;;;;3.27;2.30;;;;;;;14.68;100.00;99860.98;1792881;80;26229;-80
2021/05/09 01:08:55;;;;;;;3.77;2.00;;;;;;;14.56;100.00;99868.12;1792702;80;26275;-80
2021/05/09 01:11:25;;;;;;;3.33;2.10;;;;;;;14.62;100.00;99869.34;1793283;79;26423;-79
2021/05/09 01:13:55;;;;;;;4.10;1.90;;;;;;;14.56;100.00;99864.51;1792414;80;26710;-79
2021/05/09 01:16:24;;;;;;;3.23;1.90;;;;;;;14.57;100.00;99860.56;1792721;79;26766;-79
2021/05/09 01:18:54;;;;;;;4.97;2.50;;;;;;;14.51;100.00;99861.89;1792805;80;26691;-80
2021/05/09 01:21:24;;;;;;;3.67;1.87;;;;;;;14.50;100.00;99851.29;1793005;79;26373;-79
2021/05/09 01:23:54;;;;;;;4.70;2.00;;;;;;;14.53;100.00;99850.64;1792180;79;26747;-80
2021/05/09 01:26:24;;;;;;;2.80;1.80;;;;;;;14.60;100.00;99862.68;1792720;80;26486;-79
2021/05/09 01:28:54;;;;;;;4.00;2.17;;;;;;;14.53;100.00;99856.23;1792589;80;26687;-81
2021/05/09 01:31:23;;;;;;;3.40;2.00;;;;;;;14.51;100.00;99859.09;1792431;80;26306;-81
2021/05/09 01:33:53;;;;;;;3.23;2.10;;;;;;;14.60;100.00;99844.52;1792067;80;26286;-81
2021/05/09 01:36:23;;;;;;;2.23;1.80;;;;;;;14.54;100.00;99847.27;1792301;80;26215;-81
2021/05/09 01:38:54;;;;;;;4.43;2.00;;;;;;;14.45;100.00;99847.31;1792196;79;26676;-81
2021/05/09 01:41:24;;;;;;;4.77;2.20;;;;;;;14.45;100.00;99844.52;1792556;80;26268;-81
2021/05/09 01:43:54;;;;;;;4.47;2.17;;;;;;;14.46;100.00;99848.14;1792459;80;26268;-82
2021/05/09 01:46:24;;;;;;;3.43;1.90;;;;;;;14.55;100.00;99845.52;1791834;80;26759;-81
2021/05/09 01:48:54;;;;;;;5.47;2.30;;;;;;;14.64;100.00;99845.48;1792575;79;26318;-81
2021/05/09 01:51:24;;;;;;;2.70;2.00;;;;;;;14.66;100.00;99838.16;1792712;79;26793;-82
2021/05/09 01:53:54;;;;;;;4.03;1.90;;;;;;;14.68;100.00;99842.83;1791839;80;26346;-81
2021/05/09 01:56:24;;;;;;;3.70;2.50;;;;;;;14.74;100.00;99849.88;1793259;80;26248;-81
2021/05/09 01:58:53;;;;;;;3.57;2.00;;;;;;;14.80;100.00;99842.95;1792976;79;26691;-81
2021/05/09 02:01:23;;;;;;;3.47;1.70;;;;;;;14.79;100.00;99839.33;1792391;80;26302;-80
2021/05/09 02:03:53;;;;;;;4.60;1.90;;;;;;;14.80;100.00;99841.55;1792436;80;26807;-81
2021/05/09 02:06:23;;;;;;;4.27;1.80;;;;;;;14.90;100.00;99836.94;1792802;79;26711;-81
2021/05/09 02:08:53;;;;;;;5.23;2.37;;;;;;;14.90;100.00;99832.75;1792064;79;26236;-81
2021/05/09 02:11:23;;;;;;;3.83;2.03;;;;;;;14.85;100.00;99832.37;1792559;80;26299;-80
2021/05/09 02:13:52;;;;;;;2.73;1.80;;;;;;;14.87;100.00;99837.05;1791722;80;26323;-80
2021/05/09 02:16:22;;;;;;;3.93;1.87;;;;;;;14.88;100.00;99835.08;1792111;79;26228;-80
2021/05/09 02:18:52;;;;;;;5.13;2.20;;;;;;;14.92;100.00;99838.26;1792158;80;26232;-80
2021/05/09 02:21:22;;;;;;;3.47;1.90;;;;;;;14.94;100.00;99835.93;1792524;79;26666;-81
2021/05/09 02:23:51;;;;;;;3.87;2.00;;;;;;;15.00;100.00;99826.77;1792178;80;26225;-81
2021/05/09 02:26:21;;;;;;;4.80;1.83;;;;;;;15.03;100.00;99824.69;1792282;80;26211;-81
2021/05/09 02:28:51;;;;;;;4.13;1.87;;;;;;;15.11;100.00;99830.80;1792021;80;26244;-80
2021/05/09 02:31:21;;;;;;;6.03;2.30;;;;;;;15.11;100.00;99831.37;1791544;79;26233;-80
2021/05/09 02:33:51;;;;;;;3.00;1.60;;;;;;;15.08;100.00;99827.28;1792294;79;26738;-80
2021/05/09 02:36:20;;;;;;;4.40;2.23;;;;;;;15.06;100.00;99824.60;1792203;80;26232;-81
2021/05/09 02:38:50;;;;;;;3.83;2.10;;;;;;;15.04;100.00;99824.93;1791887;79;26681;-81
2021/05/09 02:41:22;;;;;;;7.33;2.33;;;;;;;15.09;100.00;99821.94;1791468;80;26659;-80
2021/05/09 02:43:52;;;;;;;3.70;2.50;;;;;;;15.14;100.00;99821.74;1792444;79;26323;-80
2021/05/09 02:46:22;;;;;;;3.93;1.90;;;;;;;15.11;100.00;99818.78;1791924;79;26384;-81
2021/05/09 02:48:52;;;;;;;4.60;1.97;;;;;;;15.15;100.00;99814.14;1792158;80;26692;-80
2021/05/09 02:51:21;;;;;;;5.03;2.27;;;;;;;15.19;100.00;99812.33;1792351;80;26232;-81
2021/05/09 02:53:52;;;;;;;7.17;2.13;;;;;;;15.20;100.00;99810.57;1792564;80;26225;-80
2021/05/09 02:56:21;;;;;;;5.87;2.50;;;;;;;15.27;100.00;99808.64;1792014;80;26217;-80
2021/05/09 02:58:51;;;;;;;5.13;2.20;;;;;;;15.18;100.00;99809.28;1792361;80;26299;-80
2021/05/09 03:01:21;;;;;;;5.63;1.90;;;;;;;15.18;100.00;99805.91;1792693;80;26687;-80
2021/05/09 03:03:52;;;;;;;4.80;2.10;;;;;;;15.21;100.00;99805.22;1792759;80;26675;-80
2021/05/09 03:06:22;;;;;;;4.63;2.07;;;;;;;15.16;100.00;99802.63;1792822;80;26215;-80
2021/05/09 03:08:51;;;;;;;5.20;2.00;;;;;;;15.19;100.00;99803.33;1792773;79;26228;-81
2021/05/09 03:11:26;;;;;;;5.33;2.20;;;;;;;15.09;100.00;99798.74;1792866;79;26284;-80
2021/05/09 03:13:53;;;;;;;4.27;1.97;;;;;;;15.11;100.00;99796.41;1792316;79;26216;-80
2021/05/09 03:16:23;;;;;;;4.87;1.87;;;;;;;15.06;100.00;99784.05;1792706;80;26781;-79
2021/05/09 03:18:52;;;;;;;3.30;2.13;;;;;;;15.08;100.00;99796.52;1793709;80;26279;-79
2021/05/09 03:21:22;;;;;;;3.97;1.80;;;;;;;15.08;100.00;99779.73;1792938;80;26213;-79
2021/05/09 03:24:11;;;;;;;2.93;1.80;;;;;;;15.05;100.00;99788.82;1748750;82;33410;-79
2021/05/09 03:26:41;;;;;;;4.73;2.10;;;;;;;15.05;100.00;99780.44;1749433;82;26261;-79
2021/05/09 03:29:11;;;;;;;3.67;2.00;;;;;;;15.07;100.00;99773.91;1749787;82;26343;-79
2021/05/09 03:31:44;;;;;;;3.97;1.97;;;;;;;15.04;100.00;99772.62;1742660;82;26847;-79
2021/05/09 03:34:14;;;;;;;5.03;1.90;;;;;;;14.92;100.00;99768.94;1742219;82;26331;-79
2021/05/09 03:36:44;;;;;;;5.50;2.30;;;;;;;14.88;100.00;99774.39;1742527;82;26837;-79
2021/05/09 03:39:14;;;;;;;2.87;1.90;;;;;;;14.76;100.00;99768.70;1742426;82;26347;-80
2021/05/09 03:41:43;;;;;;;6.97;2.60;;;;;;;14.71;100.00;99763.33;1742151;82;26739;-80
2021/05/09 03:44:13;;;;;;;5.13;2.43;;;;;;;14.71;100.00;99762.51;1742558;82;26264;-79
2021/05/09 03:46:43;;;;;;;4.87;2.10;;;;;;;14.62;100.00;99754.75;1741847;82;26327;-81
2021/05/09 03:49:13;;;;;;;3.10;2.20;;;;;;;14.57;100.00;99752.97;1741796;82;26720;-81
2021/05/09 03:51:43;;;;;;;5.20;2.10;;;;;;;14.66;100.00;99751.52;1741683;82;26268;-80
2021/05/09 03:54:13;;;;;;;4.43;2.20;;;;;;;14.58;100.00;99746.23;1741569;82;26256;-80
2021/05/09 03:56:42;;;;;;;5.17;2.23;;;;;;;14.50;100.00;99747.11;1791762;80;26750;-81
2021/05/09 03:59:15;;;;;;;4.90;1.80;;;;;;;14.52;100.00;99744.21;1792572;80;26220;-81
2021/05/09 04:01:46;;;;;;;5.67;2.40;;;;;;;14.48;100.00;99743.25;1772400;80;930573;-80
2021/05/09 04:04:16;;;;;;;4.90;2.63;;;;;;;14.38;100.00;99732.45;1749355;81;26249;-79
2021/05/09 04:06:46;;;;;;;5.50;1.90;;;;;;;14.43;100.00;99737.03;1779061;80;26201;-80
2021/05/09 04:09:16;;;;;;;6.63;2.60;;;;;;;14.32;100.00;99732.39;1779367;79;26283;-79
2021/05/09 04:11:45;;;;;;;6.03;2.50;;;;;;;14.42;100.00;99729.22;1781053;79;26802;-80
2021/05/09 04:14:16;;;;;;;4.83;2.47;;;;;;;14.30;100.00;99736.09;1782485;80;26241;-79
2021/05/09 04:16:45;;;;;;;6.00;2.43;;;;;;;14.22;100.00;99727.18;1782423;80;26271;-79
2021/05/09 04:19:15;;;;;;;6.07;1.93;;;;;;;14.21;100.00;99735.88;1782651;80;26750;-80
2021/05/09 04:21:46;;;;;;;6.73;2.20;;;;;;;14.21;100.00;99735.31;1782696;80;26233;-80
2021/05/09 04:24:16;;;;;;;5.03;2.30;;;;;;;14.21;100.00;99731.69;1782871;80;26332;-80
2021/05/09 04:26:46;;;;;;;6.30;2.40;;;;;;;14.13;100.00;99720.81;1730581;83;26381;-81
2021/05/09 04:29:15;;;;;;;7.93;2.63;;;;;;;14.10;100.00;99714.52;1730417;82;26245;-80
2021/05/09 04:31:45;;;;;;;4.87;2.50;;;;;;;14.12;100.00;99726.98;1744777;82;26343;-80
2021/05/09 04:34:15;;;;;;;6.40;2.50;;;;;;;14.02;100.00;99722.36;1745763;82;26233;-80
2021/05/09 04:36:45;;;;;;;4.53;2.63;;;;;;;13.99;100.00;99713.27;1744502;82;26246;-79
2021/05/09 04:39:15;;;;;;;4.10;2.47;;;;;;;14.06;100.00;99710.77;1782380;80;26648;-79
2021/05/09 04:41:44;;;;;;;5.30;2.70;;;;;;;14.03;100.00;99710.05;1782673;80;26353;-80
2021/05/09 04:44:14;;;;;;;6.00;2.77;;;;;;;14.12;100.00;99719.17;1730668;83;26659;-79
2021/05/09 04:46:44;;;;;;;5.20;2.47;;;;;;;14.10;100.00;99726.51;1731130;82;26311;-79
2021/05/09 04:49:14;;;;;;;4.87;2.40;;;;;;;14.05;100.00;99718.89;1730944;82;26684;-80
2021/05/09 04:51:44;;;;;;;6.40;2.43;;;;;;;14.04;100.00;99715.27;1782970;80;26220;-80
2021/05/09 04:54:14;;;;;;;5.87;2.63;;;;;;;14.02;100.00;99719.57;1730581;83;26783;-80
2021/05/09 04:56:44;;;;;;;5.50;2.37;;;;;;;13.99;100.00;99728.63;1782259;80;26205;-80
2021/05/09 04:59:13;;;;;;;4.73;2.47;;;;;;;14.08;100.00;99714.84;1782625;80;26707;-80
2021/05/09 05:01:43;;;;;;;6.10;2.80;;;;;;;14.06;100.00;99704.61;1782276;80;26238;-80
2021/05/09 05:04:13;;;;;;;6.10;2.43;;;;;;;14.09;100.00;99715.66;1782037;80;26343;-81
2021/05/09 05:06:43;;;;;;;4.57;2.20;;;;;;;14.14;100.00;99728.88;1782478;80;26294;-81
2021/05/09 05:09:12;;;;;;;5.67;2.17;;;;;;;14.24;100.00;99730.47;1782281;80;26264;-81
2021/05/09 05:11:42;;;;;;;7.17;2.57;;;;;;;14.21;100.00;99719.13;1736272;80;26807;-80
2021/05/09 05:14:12;;;;;;;6.60;2.37;;;;;;;14.19;100.00;99717.27;1778649;80;26322;-80
2021/05/09 05:16:42;;;;;;;9.43;2.60;;;;;;;14.13;100.00;99727.80;1748586;81;26751;-81
2021/05/09 05:19:12;;;;;;;6.10;2.10;;;;;;;14.17;100.00;99744.13;1748449;82;26692;-81
2021/05/09 05:21:42;;;;;;;6.63;2.60;;;;;;;14.15;100.00;99738.07;1778744;80;26288;-80
2021/05/09 05:24:12;;;;;;;8.47;2.67;;;;;;;14.16;100.00;99723.53;1778122;81;26212;-81
2021/05/09 05:26:42;;;;;;;5.17;2.20;;;;;;;14.22;100.00;99730.55;1778299;81;26747;-81
2021/05/09 05:29:11;;;;;;;5.97;2.40;;;;;;;14.23;100.00;99727.42;1778395;79;26213;-80
2021/05/09 05:31:41;;;;;;;4.40;2.00;;;;;;;14.29;100.00;99735.84;1749524;81;26246;-81
2021/05/09 05:34:11;;;;;;;8.57;2.83;;;;;;;14.28;100.00;99713.28;1778384;80;26216;-81
2021/05/09 05:36:41;;;;;;;8.17;2.30;;;;;;;14.31;100.00;99741.92;1778168;81;26302;-81
2021/05/09 05:39:11;;;;;;;2.77;1.60;;;;;;;14.33;100.00;99731.81;1778183;81;26208;-82
2021/05/09 05:41:41;;;;;;;4.07;2.07;;;;;;;14.38;100.00;99734.42;1778152;81;26220;-81
2021/05/09 05:44:11;;;;;;;5.50;2.37;;;;;;;14.42;100.00;99743.19;1779126;79;26271;-81
2021/05/09 05:46:41;;;;;;;3.77;1.90;;;;;;;14.48;100.00;99736.84;1748630;81;26319;-81
2021/05/09 05:49:11;;;;;;;5.57;2.43;;;;;;;14.50;100.00;99743.72;1778248;80;26295;-81
2021/05/09 05:51:41;;;;;;;4.23;2.23;;;;;;;14.57;100.00;99743.20;1778687;79;26310;-82
2021/05/09 05:54:11;;;;;;;6.53;2.30;;;;;;;14.64;100.00;99741.25;1778442;79;26291;-82
2021/05/09 05:56:41;;;;;;;6.97;2.17;;;;;;;14.64;100.00;99728.67;1778482;79;26212;-81
2021/05/09 05:59:11;;;;;;;5.27;2.53;;;;;;;14.67;100.00;99733.60;1748961;81;26245;-80
2021/05/09 06:01:40;;;;;;;5.43;2.47;;;;;;;14.69;100.00;99724.28;1778475;81;26213;-80
2021/05/09 06:04:10;;;;;;;6.10;2.20;;;;;;;14.62;100.00;99747.19;1778503;79;26314;-81
2021/05/09 06:06:41;;;;;;;4.07;1.93;;;;;;;14.64;100.00;99749.63;1778234;80;26273;-80
2021/05/09 06:09:11;;;;;;;6.13;2.47;;;;;;;14.68;100.00;99731.84;1778191;80;26212;-79
2021/05/09 06:11:41;;;;;;;4.13;2.10;;;;;;;14.68;100.00;99733.81;1778681;79;26205;-78
2021/05/09 06:14:10;;;;;;;5.17;2.20;;;;;;;14.66;100.00;99736.97;1782361;80;26827;-78
2021/05/09 06:16:40;;;;;;;7.33;2.70;;;;;;;14.64;100.00;99735.08;1782583;80;26299;-78
2021/05/09 06:19:10;;;;;;;5.10;2.57;;;;;;;14.62;100.00;99726.81;1782125;80;26716;-78
2021/05/09 06:21:40;;;;;;;4.27;2.13;;;;;;;14.63;100.00;99734.05;1731090;83;26249;-79
2021/05/09 06:24:11;;;;;;;5.87;2.70;;;;;;;14.66;100.00;99728.59;1730934;82;26293;-79
2021/05/09 06:26:41;;;;;;;6.63;2.30;;;;;;;14.66;100.00;99727.77;1782410;80;26694;-79
2021/05/09 06:29:11;;;;;;;4.63;2.60;;;;;;;14.66;100.00;99734.75;1782772;80;26205;-79
2021/05/09 06:31:41;;;;;;;6.80;3.10;;;;;;;14.70;100.00;99725.35;1782825;80;26294;-78
2021/05/09 06:34:11;;;;;;;2.70;2.30;;;;;;;14.73;100.00;99723.84;1782402;80;26294;-79
2021/05/09 06:36:41;;;;;;;7.77;2.70;;;;;;;14.81;100.00;99733.56;1782526;80;26313;-79
2021/05/09 06:39:12;;;;;;;5.17;2.57;;;;;;;14.87;100.00;99717.41;1782503;80;26220;-78
2021/05/09 06:41:42;;;;;;;6.20;3.03;;;;;;;14.79;100.00;99713.53;1782501;80;26314;-78
2021/05/09 06:44:12;;;;;;;8.10;2.60;;;;;;;14.81;100.00;99721.55;1730506;83;26771;-78
2021/05/09 06:46:42;;;;;;;7.23;3.13;;;;;;;14.91;100.00;99728.14;1743994;82;26241;-78
2021/05/09 06:49:14;;;;;;;5.57;2.40;;;;;;;14.94;100.00;99723.26;1744568;82;26328;-79
2021/05/09 06:51:43;;;;;;;6.70;2.40;;;;;;;14.93;100.00;99717.45;1782776;80;26208;-79
2021/05/09 06:54:13;;;;;;;5.23;2.33;;;;;;;15.04;100.00;99715.86;1782199;80;26208;-79
2021/05/09 06:56:43;;;;;;;5.33;2.90;;;;;;;15.14;100.00;99716.03;1782173;80;26197;-78
2021/05/09 06:59:13;;;;;;;5.37;2.87;;;;;;;15.20;100.00;99712.66;1782198;80;26664;-75
2021/05/09 07:01:43;;;;;;;4.97;2.73;;;;;;;15.21;100.00;99716.28;1781959;80;26200;-78
2021/05/09 07:04:13;;;;;;;4.00;2.90;;;;;;;15.27;100.00;99728.91;1729958;83;26355;-76
2021/05/09 07:06:43;;;;;;;4.20;2.40;;;;;;;15.34;100.00;99720.77;1730248;82;26249;-78
2021/05/09 07:09:13;;;;;;;7.63;2.57;;;;;;;15.43;100.00;99715.33;1730918;82;26249;-76
2021/05/09 07:11:42;;;;;;;3.90;2.17;;;;;;;15.62;100.00;99717.60;1782690;80;26706;-75
2021/05/09 07:14:12;;;;;;;5.23;2.37;;;;;;;15.66;100.00;99717.14;1782328;80;26719;-79
2021/05/09 07:16:42;;;;;;;6.07;2.27;;;;;;;15.71;100.00;99714.13;1782220;80;26305;-78
2021/05/09 07:19:14;;;;;;;4.50;2.13;;;;;;;15.72;100.00;99703.17;1781917;80;26216;-78
2021/05/09 07:21:50;;;;;;;5.23;2.53;;;;;;;15.73;100.00;99699.22;1782152;80;26220;-78
2021/05/09 07:24:18;;;;;;;7.57;2.40;;;;;;;15.73;100.00;99693.61;1781785;79;26287;-78
2021/05/09 07:26:48;;;;;;;6.17;2.53;;;;;;;15.83;100.00;99695.94;1782014;79;26205;-78
2021/05/09 07:29:18;;;;;;;5.60;2.10;;;;;;;15.92;100.00;99704.23;1782043;80;26267;-78
2021/05/09 07:31:48;;;;;;;4.37;2.00;;;;;;;15.96;100.00;99700.18;1782060;80;26275;-78
2021/05/09 07:34:18;;;;;;;4.03;2.00;;;;;;;16.01;100.00;99696.55;1781815;80;26734;-78
2021/05/09 07:36:49;;;;;;;4.33;2.00;;;;;;;16.06;100.00;99708.92;1782364;80;26212;-78
2021/05/09 07:39:19;;;;;;;5.83;2.13;;;;;;;16.11;100.00;99719.90;1781893;80;26268;-78
2021/05/09 07:41:49;;;;;;;4.87;2.20;;;;;;;16.27;100.00;99706.00;1781918;80;26341;-78
2021/05/09 07:44:18;;;;;;;4.87;2.00;;;;;;;16.55;100.00;99705.52;1729905;83;26245;-78
2021/05/09 07:46:48;;;;;;;4.57;1.80;;;;;;;16.36;100.00;99708.92;1729430;82;26253;-78
2021/05/09 07:49:18;;;;;;;5.23;2.00;;;;;;;16.43;100.00;99715.32;1730556;82;26312;-78
2021/05/09 07:51:48;;;;;;;6.27;2.03;;;;;;;16.52;100.00;99706.20;1743762;82;26712;-78
2021/05/09 07:54:18;;;;;;;5.40;1.97;;;;;;;16.47;100.00;99700.05;1743663;82;26416;-78
2021/05/09 07:56:48;;;;;;;5.67;2.00;;;;;;;16.51;100.00;99700.97;1781927;80;26332;-79
2021/05/09 07:59:18;;;;;;;5.03;1.97;;;;;;;16.38;100.00;99693.16;1782108;80;26212;-77
2021/05/09 08:01:48;;;;;;;3.83;1.90;;;;;;;16.45;100.00;99684.15;1781808;80;26405;-74
2021/05/09 08:04:18;;;;;;;7.07;2.33;;;;;;;16.53;100.00;99681.22;1730116;83;26722;-74
2021/05/09 08:06:47;;;;;;;4.17;1.97;;;;;;;16.54;100.00;99680.05;1730133;82;26315;-76
2021/05/09 08:09:17;;;;;;;6.23;1.73;;;;;;;16.58;100.00;99673.18;1730062;83;26242;-75
2021/05/09 08:11:47;;;;;;;5.97;2.30;;;;;;;16.62;100.00;99668.50;1730393;82;26362;-75
2021/05/09 08:14:17;;;;;;;6.37;2.93;;;;;;;16.80;100.00;99669.27;1781679;79;26270;-75
2021/05/09 08:16:47;;;;;;;3.40;1.70;;;;;;;16.98;100.00;99657.76;1730322;83;26246;-75
2021/05/09 08:19:16;;;;;;;4.03;1.67;;;;;;;17.11;100.00;99653.14;1744646;82;26235;-75
2021/05/09 08:21:48;;;;;;;4.80;1.93;;;;;;;17.45;100.00;99654.48;1744536;82;26247;-75
2021/05/09 08:24:18;;;;;;;2.30;1.43;;;;;;;17.93;100.00;99650.52;1743391;82;26329;-75
2021/05/09 08:26:47;;;;;;;3.90;1.87;;;;;;;18.17;100.00;99633.47;1743829;82;26259;-75
2021/05/09 08:29:17;;;;;;;5.30;1.70;;;;;;;18.51;100.00;99632.42;1745432;82;26317;-75
2021/05/09 08:31:47;;;;;;;3.93;1.80;;;;;;;18.64;100.00;99632.55;1782433;80;24238;-75
2021/05/09 08:34:17;;;;;;;5.57;1.80;;;;;;;18.61;100.00;99634.08;1781903;80;26313;-75
2021/05/09 08:36:47;;;;;;;4.40;1.60;;;;;;;18.58;100.00;99638.22;1781686;80;24149;-76
2021/05/09 08:39:16;;;;;;;4.50;1.80;;;;;;;18.26;100.00;99635.26;1782199;80;26744;-75
2021/05/09 08:41:48;;;;;;;9.13;1.90;;;;;;;18.47;100.00;99628.72;1781892;80;26277;-75
2021/05/09 08:44:17;;;;;;;2.20;1.20;;;;;;;18.63;100.00;99622.47;1782191;80;24223;-76
2021/05/09 08:46:48;;;;;;;3.37;1.80;;;;;;;18.91;100.00;99627.90;1782275;80;24226;-76
2021/05/09 08:49:20;;;;;;;5.50;1.90;;;;;;;19.14;100.00;99633.56;1729567;83;24178;-76
2021/05/09 08:51:51;;;;;;;4.10;1.40;;;;;;;19.24;100.00;99634.38;1730379;82;26336;-76
2021/05/09 08:54:21;;;;;;;2.93;1.30;;;;;;;19.10;100.00;99630.09;1741702;82;26814;-76
2021/05/09 08:56:51;;;;;;;4.10;1.57;;;;;;;18.70;100.00;99635.27;1744687;82;24190;-76
2021/05/09 08:59:21;;;;;;;4.00;1.60;;;;;;;18.76;100.00;99641.42;1745021;82;24601;-76
2021/05/09 09:01:51;;;;;;;3.20;1.50;;;;;;;18.96;100.00;99631.20;1744113;82;26719;-76
2021/05/09 09:04:21;;;;;;;2.77;1.20;;;;;;;18.94;100.00;99639.81;1743769;82;24240;-76
2021/05/09 09:06:52;;;;;;;3.77;1.70;;;;;;;19.43;100.00;99646.44;1782104;80;24593;-77
2021/05/09 09:09:24;;;;;;;3.13;1.40;;;;;;;19.58;100.00;99639.08;1730304;83;24178;-76
2021/05/09 09:11:56;;;;;;;3.47;1.57;;;;;;;19.65;100.00;99632.74;1782355;80;24628;-76
2021/05/09 09:14:27;;;;;;;3.20;1.33;;;;;;;19.83;100.00;99636.69;1781819;80;26741;-77
2021/05/09 09:17:14;;;;;;;4.13;1.63;;;;;;;19.82;100.00;99633.05;1782168;80;24228;-77
2021/05/09 09:20:21;;;;;;;3.57;1.20;;;;;;;19.71;100.00;99638.30;1781841;80;24164;-76
2021/05/09 09:22:56;;;;;;;2.40;1.20;;;;;;;19.55;100.00;99636.40;1724176;82;24216;-77
2021/05/09 09:25:29;;;;;;;1.50;0.83;;;;;;;19.43;100.00;99639.40;1723631;83;26677;-76
2021/05/09 09:27:59;;;;;;;2.20;1.07;;;;;;;19.13;100.00;99648.23;1723754;83;24270;-77
2021/05/09 09:30:30;;;;;;;1.27;1.00;;;;;;;19.08;100.00;99635.89;1723198;83;26705;-77
2021/05/09 09:33:13;;;;;;;3.03;1.13;;;;;;;19.43;100.00;99636.58;1726223;83;24371;-76
2021/05/09 09:35:45;;;;;;;2.63;0.90;;;;;;;19.79;100.00;99640.86;1723370;83;26725;-77
2021/05/09 09:38:29;;;;;;;0.90;0.90;;;;;;;20.07;100.00;99636.91;1723349;83;24211;-76
2021/05/09 09:41:09;;;;;;;3.20;0.93;;;;;;;20.14;100.00;99624.31;1723438;83;24196;-76
2021/05/09 09:43:39;;;;;;;2.47;0.80;;;;;;;19.76;100.00;99638.81;1723586;83;24745;-77
2021/05/09 09:46:30;;;;;;;1.10;0.90;;;;;;;19.61;100.00;99643.95;1723336;80;24266;-77
2021/05/09 09:49:01;;;;;;;2.70;1.20;;;;;;;19.50;100.00;99633.92;1723403;83;24235;-77
2021/05/09 09:51:33;;;;;;;1.37;0.73;;;;;;;19.60;100.00;99621.19;1723380;83;24327;-77
2021/05/09 09:54:03;;;;;;;1.73;0.90;;;;;;;19.80;100.00;99627.59;1738119;82;24169;-76
2021/05/09 09:56:33;;;;;;;0.80;0.80;;;;;;;20.02;100.00;99630.98;1752638;82;24672;-76
2021/05/09 09:59:04;;;;;;;2.47;1.07;;;;;;;20.00;100.00;99634.17;1752647;82;24286;-76
2021/05/09 10:01:36;;;;;;;6.90;1.33;;;;;;;20.40;100.00;99621.53;1752764;82;24255;-76
2021/05/09 10:04:09;;;;;;;2.10;0.90;;;;;;;20.55;100.00;99605.00;1752604;82;24221;-76
2021/05/09 10:06:39;;;;;;;4.50;1.03;;;;;;;20.59;100.00;99597.99;1752715;82;26770;-77
2021/05/09 10:09:10;;;;;;;3.50;1.23;;;;;;;20.39;100.00;99599.55;1752719;82;24321;-76
2021/05/09 10:11:40;;;;;;;2.47;1.13;;;;;;;20.41;100.00;99609.03;1752648;82;26851;-76
2021/05/09 10:14:10;;;;;;;1.60;0.77;;;;;;;20.51;100.00;99601.32;1752582;82;26375;-76
2021/05/09 10:16:44;;;;;;;0.80;0.63;;;;;;;20.52;100.00;99599.32;1744103;80;24281;-77
2021/05/09 10:19:16;;;;;;;1.77;0.90;;;;;;;20.63;100.00;99619.42;1743618;82;24190;-77
2021/05/09 10:21:46;;;;;;;2.27;1.10;;;;;;;20.32;100.00;99624.81;1743675;82;24260;-77
2021/05/09 10:24:18;;;;;;;2.07;1.00;;;;;;;20.25;100.00;99621.05;1743817;82;24708;-77
2021/05/09 10:26:51;;;;;;;2.83;1.30;;;;;;;20.28;100.00;99587.89;1743614;82;24604;-76
2021/05/09 10:30:03;;;;;;;1.60;1.10;;;;;;;20.36;100.00;99574.95;1743593;82;24284;-77
2021/05/09 10:32:50;;;;;;;2.17;0.90;;;;;;;20.33;100.00;99601.06;1743723;82;24254;-77
2021/05/09 10:35:53;;;;;;;3.20;1.20;;;;;;;20.38;100.00;99604.98;1743552;82;24316;-77
2021/05/09 10:38:23;;;;;;;2.80;1.30;;;;;;;20.32;100.00;99616.98;1743691;82;24186;-77
2021/05/09 10:41:08;;;;;;;2.17;1.20;;;;;;;20.38;100.00;99616.84;1743510;82;26665;-77
2021/05/09 10:43:42;;;;;;;3.20;1.40;;;;;;;20.43;100.00;99613.70;1743587;82;24183;-77
2021/05/09 10:46:12;;;;;;;1.47;0.77;;;;;;;20.43;100.00;99601.83;1743538;82;24190;-76
2021/05/09 10:48:42;;;;;;;2.93;1.00;;;;;;;20.40;100.00;99593.33;1743523;82;24190;-77
2021/05/09 10:51:29;;;;;;;3.10;1.00;;;;;;;20.36;100.00;99592.46;1743633;82;24349;-77
2021/05/09 10:54:20;;;;;;;1.37;0.90;;;;;;;20.35;100.00;99592.23;1743594;82;24330;-77
2021/05/09 10:56:51;;;;;;;2.00;1.00;;;;;;;20.36;100.00;99603.74;1743480;82;24670;-77
2021/05/09 10:59:22;;;;;;;3.40;0.97;;;;;;;20.40;100.00;99600.38;1743519;82;24326;-77
2021/05/09 11:02:08;;;;;;;2.77;1.00;;;;;;;20.37;100.00;99601.93;1740667;82;24191;-77
2021/05/09 11:04:51;;;;;;;2.10;0.90;;;;;;;20.37;100.00;99601.93;1743611;82;24244;-77
2021/05/09 11:07:43;;;;;;;2.83;1.10;;;;;;;20.47;100.00;99596.83;1743521;82;24252;-77
2021/05/09 11:10:47;;;;;;;2.63;1.13;;;;;;;20.37;100.00;99607.57;1743514;82;26794;-77
2021/05/09 11:13:17;;;;;;;2.13;1.00;;;;;;;20.36;100.00;99599.52;1723124;83;24201;-77
2021/05/09 11:16:06;;;;;;;1.87;0.77;;;;;;;20.52;100.00;99586.03;1723280;82;24245;-77
2021/05/09 11:18:36;;;;;;;1.80;1.00;;;;;;;20.71;100.00;99590.72;1723250;83;24205;-77
2021/05/09 11:21:07;;;;;;;3.83;1.27;;;;;;;20.69;100.00;99591.69;1723336;83;24205;-77
2021/05/09 11:23:41;;;;;;;2.77;1.30;;;;;;;20.53;100.00;99595.31;1723383;83;24624;-77
2021/05/09 11:26:22;;;;;;;3.23;1.00;;;;;;;20.59;100.00;99590.34;1723553;83;24237;-77
2021/05/09 11:29:06;;;;;;;2.53;1.20;;;;;;;20.71;100.00;99597.15;1723407;83;24265;-77
2021/05/09 11:31:38;;;;;;;2.23;0.80;;;;;;;20.47;100.00;99583.53;1723312;83;24214;-77
2021/05/09 11:34:09;;;;;;;1.40;0.80;;;;;;;20.63;100.00;99581.92;1723356;83;24205;-77
2021/05/09 11:36:40;;;;;;;1.93;1.20;;;;;;;20.72;100.00;99582.45;1723291;83;24288;-77
2021/05/09 11:39:12;;;;;;;4.50;1.13;;;;;;;20.51;100.00;99585.80;1723377;83;24272;-78
2021/05/09 11:41:53;;;;;;;3.03;1.30;;;;;;;20.55;100.00;99581.02;1723508;83;24616;-77
2021/05/09 11:44:24;;;;;;;2.93;0.90;;;;;;;20.53;100.00;99589.08;1723301;83;24201;-77